Alameda, CA

8:13 PM PST on January 27, 2015 (GMT -0800)
Shoreline | Change Station
CLOSE
Current Station
Personal Weather Station
Location: Alameda, CA
Elevation: 10 ft
Nearby Weather Stations

Elev 10 ft 37.76 °N, 122.26 °W | Updated 19 seconds ago

Partly Cloudy
Partly Cloudy
54.3 °F
Feels Like 54.3 °F
N
0.0
Wind Variable Wind from SSW
Gusts 0.0 mph

Today
High -- | Low -- °F
--% Chance of Precip.
Yesterday
High -- | Low -- °F
Precip. -- in
7:17 AM 5:26 PM
First Quarter, 60% visible
Pressure 30.25 in
Visibility 10.0 miles
Clouds Few 15000 ft
Scattered Clouds 18000 ft
Dew Point 50 °F
Humidity 87%
Rainfall 0.00 in
Snow Depth Not available.
UV 0 out of 12
Pollen 6.80 out of 12
Air Quality Not available.
Flu Activity Not available.
METAR KOAK 280353Z 00000KT 10SM FEW150 SCT180 13/09 A3025 RMK AO2 SLP241 T01280089

More Conditions Fewer Conditions

Pressure 30.25 in
Visibility 10.0 miles
Clouds Few 15000 ft
Scattered Clouds 18000 ft
Dew Point 50 °F
Humidity 87%
Rainfall 0.00 in
Snow Depth Not available.
UV 0 out of 12
Pollen 6.80 out of 12
Air Quality Not available.
Flu Activity Not available.
METAR KOAK 280353Z 00000KT 10SM FEW150 SCT180 13/09 A3025 RMK AO2 SLP241 T01280089

More Conditions Fewer Conditions

10-Day Weather Forecast

Almanac

Astronomy

Jan. 27, 2015 Rise Set
Actual Time
Civil Twilight
Nautical Twilight
Astronomical Twilight
Moon
Length of Visible Light
Length of Day
Tomorrow will be .
, % of the Moon is Illuminated

Today's Extremes

State Highs State Lows

Community

WunderPhotos

Upload Photos

1,791,086 photos uploaded!

WunderBlogs® & News

Nearby

Air Quality

  Air Quality AQ Index Pollutant
Not available.

Snow Depth

Station Depth Elevation

Earthquake Activity

City Distance Mag. Time & Date
Minimum magnitude displayed is 2.5.

Coastal Water Temperatures

Place Temperature

Nearby Weather Stations